createdAt,value
2018-10-12T00:00:48.475Z,108.8662
2018-10-12T00:01:53.916Z,108.6152
2018-10-12T00:02:59.408Z,108.3615
2018-10-12T00:04:05.091Z,108.8662
2018-10-12T00:05:09.480Z,108.3615
2018-10-12T00:06:14.751Z,108.6152
2018-10-12T00:07:20.440Z,108.8662
2018-10-12T00:08:25.894Z,109.1199
2018-10-12T00:09:31.594Z,108.3615
2018-10-12T00:10:36.737Z,108.3615
2018-10-12T00:11:41.864Z,108.3615
2018-10-12T00:12:47.389Z,108.3615
2018-10-12T00:13:52.274Z,107.8568
2018-10-12T00:14:57.228Z,107.6877
2018-10-12T00:16:02.110Z,108.1105
2018-10-12T00:17:06.995Z,108.3615
2018-10-12T00:18:12.473Z,108.3615
2018-10-12T00:19:17.742Z,108.1105
2018-10-12T00:20:23.174Z,107.8568
2018-10-12T00:21:29.073Z,107.4367
2018-10-12T00:22:34.077Z,107.4367
2018-10-12T00:23:39.511Z,107.4367
2018-10-12T00:24:44.678Z,108.3615
2018-10-12T00:25:50.151Z,107.6877
2018-10-12T00:26:55.339Z,107.8568
2018-10-12T00:28:00.787Z,108.8662
2018-10-12T00:29:06.250Z,108.8662
2018-10-12T00:30:11.427Z,108.3615
2018-10-12T00:31:16.635Z,107.4367
2018-10-12T00:32:22.183Z,107.8568
2018-10-12T00:33:27.974Z,107.1857
2018-10-12T00:34:32.864Z,107.4367
2018-10-12T00:35:38.298Z,107.4367
2018-10-12T00:36:43.709Z,106.932
2018-10-12T00:37:49.259Z,106.932
2018-10-12T00:38:54.223Z,107.1857
2018-10-12T00:40:00.062Z,107.1857
2018-10-12T00:41:05.233Z,106.681
2018-10-12T00:42:10.759Z,107.6877
2018-10-12T00:43:16.558Z,106.932
2018-10-12T00:44:21.556Z,107.1857
2018-10-12T00:45:41.776Z,106.932
2018-10-12T00:46:46.957Z,107.1857
2018-10-12T00:47:51.348Z,105.9226
2018-10-12T00:48:56.206Z,106.681
2018-10-12T00:50:01.714Z,106.932
2018-10-12T00:51:06.641Z,105.6716
2018-10-12T00:52:11.758Z,106.932
2018-10-12T00:53:16.922Z,106.1763
2018-10-12T00:54:22.123Z,105.9226
2018-10-12T00:55:27.385Z,105.2489
2018-10-12T00:56:33.032Z,105.2489
2018-10-12T00:57:38.506Z,105.6716
2018-10-12T00:58:43.980Z,106.1763
2018-10-12T00:59:49.131Z,105.6716
2018-10-12T01:00:54.662Z,105.2489
2018-10-12T01:01:59.592Z,104.5777
2018-10-12T01:03:04.490Z,104.5777
2018-10-12T01:04:09.637Z,106.1763
2018-10-12T01:05:15.267Z,105.6716
2018-10-12T01:06:20.415Z,104.324
2018-10-12T01:07:26.120Z,104.9978
2018-10-12T01:08:31.066Z,105.2489
2018-10-12T01:09:37.010Z,104.9978
2018-10-12T01:10:41.881Z,104.5777
2018-10-12T01:11:46.789Z,105.2489
2018-10-12T01:12:52.569Z,103.5683
2018-10-12T01:13:57.571Z,105.418
2018-10-12T01:15:02.444Z,104.073
2018-10-12T01:16:08.339Z,104.5777
2018-10-12T01:17:12.927Z,104.324
2018-10-12T01:18:18.096Z,104.324
2018-10-12T01:19:23.515Z,103.822
2018-10-12T01:20:28.965Z,103.822
2018-10-12T01:21:34.675Z,104.324
2018-10-12T01:22:40.115Z,104.9978
2018-10-12T01:23:45.558Z,104.073
2018-10-12T01:24:50.930Z,103.3173
2018-10-12T01:25:56.396Z,103.3173
2018-10-12T01:27:01.553Z,103.3173
2018-10-12T01:28:06.406Z,104.073
2018-10-12T01:29:11.290Z,103.822
2018-10-12T01:30:16.516Z,103.3173
2018-10-12T01:31:21.655Z,103.822
2018-10-12T01:32:26.812Z,104.073
2018-10-12T01:33:32.464Z,103.822
2018-10-12T01:34:37.632Z,104.324
2018-10-12T01:35:43.068Z,104.324
2018-10-12T01:36:48.220Z,103.822
2018-10-12T01:37:52.814Z,104.073
2018-10-12T01:38:58.290Z,103.822
2018-10-12T01:40:02.961Z,103.0637
2018-10-12T01:41:08.131Z,104.324
2018-10-12T01:42:13.050Z,103.822
2018-10-12T01:43:18.168Z,104.073
2018-10-12T01:44:23.627Z,104.5777
2018-10-12T01:45:28.760Z,104.324
2018-10-12T01:46:33.901Z,104.073
2018-10-12T01:47:39.412Z,104.324
2018-10-12T01:48:45.249Z,102.559
2018-10-12T01:49:50.201Z,104.324
2018-10-12T01:50:55.418Z,103.3173
2018-10-12T01:52:01.252Z,104.324
2018-10-12T01:53:06.446Z,104.073
2018-10-12T01:54:11.889Z,103.5683
2018-10-12T01:55:17.004Z,105.2489
2018-10-12T01:56:22.446Z,103.822
2018-10-12T01:57:42.222Z,104.9978
2018-10-12T01:58:47.671Z,103.822
2018-10-12T01:59:53.104Z,104.5777
2018-10-12T02:00:58.751Z,104.324
2018-10-12T02:02:04.015Z,104.5777
2018-10-12T02:03:08.593Z,104.5777
2018-10-12T02:04:14.268Z,104.5777
2018-10-12T02:05:19.757Z,104.5777
2018-10-12T02:07:45.466Z,105.9226
2018-10-12T02:08:50.341Z,105.9226
2018-10-12T02:09:56.267Z,104.9978
2018-10-12T02:11:01.914Z,105.2489
2018-10-12T02:12:06.507Z,105.418
2018-10-12T02:13:12.201Z,105.418
2018-10-12T02:14:17.732Z,105.418
2018-10-12T02:15:22.339Z,104.9978
2018-10-12T02:16:27.634Z,104.5777
2018-10-12T02:17:33.207Z,104.9978
2018-10-12T02:18:38.772Z,105.9226
2018-10-12T02:19:44.214Z,104.9978
2018-10-12T02:20:49.781Z,104.324
2018-10-12T02:21:55.522Z,104.324
2018-10-12T02:23:00.962Z,104.5777
2018-10-12T02:24:05.847Z,103.822
2018-10-12T02:25:11.258Z,104.5777
2018-10-12T02:26:16.458Z,105.2489
2018-10-12T02:27:21.409Z,104.5777
2018-10-12T02:28:27.211Z,104.5777
2018-10-12T02:29:32.328Z,104.073
2018-10-12T02:30:37.389Z,104.324
2018-10-12T02:31:42.830Z,104.073
2018-10-12T02:32:48.389Z,104.5777
2018-10-12T02:33:54.087Z,104.073
2018-10-12T02:34:59.530Z,103.822
2018-10-12T02:36:04.438Z,104.324
2018-10-12T02:37:09.371Z,104.324
2018-10-12T02:38:14.531Z,103.822
2018-10-12T02:39:19.968Z,104.073
2018-10-12T02:40:25.605Z,103.822
2018-10-12T02:41:31.043Z,103.5683
2018-10-12T02:42:36.794Z,104.5777
2018-10-12T02:43:42.281Z,104.5777
2018-10-12T02:44:47.724Z,104.5777
2018-10-12T02:45:53.414Z,103.822
2018-10-12T02:46:58.602Z,104.324
2018-10-12T02:48:03.864Z,104.073
2018-10-12T02:49:09.605Z,104.073
2018-10-12T02:50:15.023Z,104.5777
2018-10-12T02:51:19.621Z,103.3173
2018-10-12T02:52:24.601Z,102.8126
2018-10-12T02:53:30.044Z,103.0637
2018-10-12T02:54:35.605Z,103.0637
2018-10-12T02:55:40.481Z,103.3173
2018-10-12T02:56:45.210Z,103.0637
2018-10-12T02:57:50.780Z,103.0637
2018-10-12T02:58:56.224Z,103.3173
2018-10-12T03:00:01.207Z,102.8126
2018-10-12T03:01:06.734Z,102.559
2018-10-12T03:02:12.208Z,102.559
2018-10-12T03:03:17.526Z,101.3831
2018-10-12T03:04:22.946Z,102.1388
2018-10-12T03:05:28.474Z,101.6342
2018-10-12T03:06:34.075Z,101.6342
2018-10-12T03:07:39.249Z,102.1388
2018-10-12T03:08:44.180Z,101.3831
2018-10-12T03:09:50.126Z,102.1388
2018-10-12T03:10:55.617Z,101.6342
2018-10-12T03:12:00.850Z,101.6342
2018-10-12T03:13:06.782Z,101.6342
2018-10-12T03:14:12.240Z,101.6342
2018-10-12T03:15:17.397Z,101.1295
2018-10-12T03:16:22.645Z,100.6274
2018-10-12T03:17:27.810Z,101.3831
2018-10-12T03:18:33.403Z,100.8785
2018-10-12T03:19:38.655Z,100.3738
2018-10-12T03:20:44.119Z,100.1228
2018-10-12T03:21:50.003Z,99.7026
2018-10-12T03:22:55.181Z,99.449
2018-10-12T03:24:00.355Z,98.9443
2018-10-12T03:25:05.241Z,99.7026
2018-10-12T03:26:10.396Z,99.449
2018-10-12T03:27:15.074Z,98.6933
2018-10-12T03:28:20.599Z,98.9443
2018-10-12T03:29:25.194Z,98.0221
2018-10-12T03:30:30.820Z,99.1979
2018-10-12T03:31:36.277Z,98.5242
2018-10-12T03:32:41.715Z,98.6933
2018-10-12T03:33:47.655Z,98.5242
2018-10-12T03:34:53.085Z,99.1979
2018-10-12T03:35:57.958Z,98.6933
2018-10-12T03:37:03.561Z,99.1979
2018-10-12T03:38:08.080Z,98.9443
2018-10-12T03:39:13.330Z,98.2731
2018-10-12T03:40:19.051Z,98.2731
2018-10-12T03:41:24.283Z,98.9443
2018-10-12T03:42:30.321Z,98.5242
2018-10-12T03:43:35.240Z,98.6933
2018-10-12T03:44:40.441Z,98.2731
2018-10-12T03:45:46.145Z,98.6933
2018-10-12T03:46:51.643Z,98.9443
2018-10-12T03:47:57.197Z,98.2731
2018-10-12T03:49:02.318Z,98.5242
2018-10-12T03:50:06.977Z,98.9443
2018-10-12T03:51:12.409Z,98.5242
2018-10-12T03:52:18.256Z,99.1979
2018-10-12T03:53:23.710Z,98.2731
2018-10-12T03:54:29.558Z,98.6933
2018-10-12T03:55:34.776Z,99.1979
2018-10-12T03:56:40.205Z,98.9443
2018-10-12T03:57:45.985Z,98.6933
2018-10-12T03:58:51.511Z,98.2731
2018-10-12T03:59:57.008Z,98.0221
2018-10-12T04:01:02.132Z,98.0221
2018-10-12T04:02:06.544Z,98.0221
2018-10-12T04:03:11.430Z,98.5242
2018-10-12T04:04:16.881Z,98.9443
2018-10-12T04:05:22.047Z,98.9443
2018-10-12T04:06:28.193Z,98.9443
2018-10-12T04:07:33.449Z,98.2731
2018-10-12T04:08:38.638Z,98.0221
2018-10-12T04:09:43.765Z,97.7685
2018-10-12T04:10:49.212Z,98.2731
2018-10-12T04:11:54.675Z,98.2731
2018-10-12T04:13:00.473Z,98.6933
2018-10-12T04:14:05.943Z,98.2731
2018-10-12T04:15:10.667Z,98.6933
2018-10-12T04:16:16.065Z,98.6933
2018-10-12T04:17:21.555Z,98.0221
2018-10-12T04:18:41.658Z,98.6933
2018-10-12T04:19:47.110Z,98.5242
2018-10-12T04:20:52.467Z,98.6933
2018-10-12T04:21:58.314Z,98.0221
2018-10-12T04:23:03.066Z,98.2731
2018-10-12T04:24:08.303Z,96.0879
2018-10-12T04:25:14.139Z,94.1564
2018-10-12T04:26:19.615Z,93.1497
2018-10-12T04:28:44.836Z,93.9054
2018-10-12T04:29:49.732Z,93.9054
2018-10-12T04:30:55.334Z,94.9121
2018-10-12T04:32:00.220Z,93.6517
2018-10-12T04:33:05.699Z,93.4007
2018-10-12T04:34:11.486Z,94.4074
2018-10-12T04:35:16.401Z,94.9121
2018-10-12T04:36:20.984Z,93.9054
2018-10-12T04:37:26.427Z,94.9121
2018-10-12T04:38:31.596Z,94.1564
2018-10-12T04:39:37.171Z,93.6517
2018-10-12T04:40:42.322Z,93.2316
2018-10-12T04:41:47.533Z,93.4007
2018-10-12T04:42:52.661Z,93.9054
2018-10-12T04:43:58.101Z,93.2316
2018-10-12T04:45:03.344Z,91.9738
2018-10-12T04:46:08.889Z,92.2249
2018-10-12T04:47:14.268Z,91.4692
2018-10-12T04:48:19.768Z,91.9738
2018-10-12T04:49:25.265Z,91.4692
2018-10-12T04:50:30.701Z,91.9738
2018-10-12T04:51:36.577Z,91.7202
2018-10-12T04:52:41.727Z,91.9738
2018-10-12T04:53:47.726Z,91.7202
2018-10-12T04:54:53.878Z,90.798
2018-10-12T04:55:59.388Z,91.049
2018-10-12T04:57:04.576Z,91.2181
2018-10-12T04:58:09.765Z,90.798
2018-10-12T04:59:14.657Z,91.049
2018-10-12T05:00:19.820Z,91.7202
2018-10-12T05:01:25.593Z,91.049
2018-10-12T05:02:31.022Z,91.2181
2018-10-12T05:03:36.404Z,91.7202
2018-10-12T05:04:41.923Z,92.4759
2018-10-12T05:05:47.376Z,91.9738
2018-10-12T05:06:52.520Z,90.798
2018-10-12T05:07:57.462Z,91.049
2018-10-12T05:09:02.644Z,90.2933
2018-10-12T05:10:07.960Z,89.7887
2018-10-12T05:11:12.281Z,90.2933
2018-10-12T05:12:17.743Z,89.7887
2018-10-12T05:13:23.193Z,90.5443
2018-10-12T05:14:27.936Z,90.798
2018-10-12T05:15:32.906Z,90.0423
2018-10-12T05:16:38.390Z,89.0329
2018-10-12T05:17:43.613Z,90.0423
2018-10-12T05:18:49.048Z,88.6128
2018-10-12T05:19:54.487Z,89.0329
2018-10-12T05:21:00.032Z,89.7887
2018-10-12T05:22:05.982Z,88.8665
2018-10-12T05:23:11.344Z,89.0329
2018-10-12T05:24:16.513Z,89.5376
2018-10-12T05:25:22.199Z,89.0329
2018-10-12T05:26:27.164Z,88.3618
2018-10-12T05:27:32.852Z,89.1175
2018-10-12T05:28:38.291Z,88.8665
2018-10-12T05:29:43.449Z,88.8665
2018-10-12T05:30:49.218Z,88.8665
2018-10-12T05:31:54.702Z,87.6061
2018-10-12T05:32:59.573Z,87.3551
2018-10-12T05:34:05.007Z,87.6061
2018-10-12T05:35:09.944Z,88.3618
2018-10-12T05:36:15.725Z,87.8598
2018-10-12T05:37:21.260Z,87.3551
2018-10-12T05:38:26.806Z,87.6061
2018-10-12T05:39:32.104Z,87.104
2018-10-12T05:40:36.983Z,87.3551
2018-10-12T05:41:42.233Z,87.104
2018-10-12T05:42:48.023Z,86.6839
2018-10-12T05:43:54.267Z,86.6839
2018-10-12T05:44:59.599Z,87.104
2018-10-12T05:46:05.129Z,86.5148
2018-10-12T05:47:10.362Z,86.2638
2018-10-12T05:48:15.377Z,86.5148
2018-10-12T05:49:20.985Z,85.5081
2018-10-12T05:50:26.515Z,86.6839
2018-10-12T05:51:31.945Z,86.5148
2018-10-12T05:52:37.163Z,87.104
2018-10-12T05:53:42.698Z,86.5148
2018-10-12T05:54:48.214Z,86.0128
2018-10-12T05:55:53.679Z,86.0128
2018-10-12T05:56:59.426Z,85.7591
2018-10-12T05:58:04.928Z,86.0128
2018-10-12T05:59:09.801Z,86.0128
2018-10-12T06:00:15.049Z,84.8369
2018-10-12T06:01:20.864Z,84.5859
2018-10-12T06:02:25.854Z,85.0034
2018-10-12T06:03:31.447Z,83.5792
2018-10-12T06:04:36.920Z,83.8302
2018-10-12T06:05:41.843Z,83.5792
2018-10-12T06:06:47.280Z,83.5792
2018-10-12T06:07:52.179Z,83.5792
2018-10-12T06:08:57.113Z,82.8235
2018-10-12T06:10:03.420Z,83.5792
2018-10-12T06:11:08.462Z,83.5792
2018-10-12T06:12:13.661Z,84.0812
2018-10-12T06:13:19.366Z,83.5792
2018-10-12T06:14:24.526Z,84.0812
2018-10-12T06:15:30.052Z,84.0812
2018-10-12T06:16:35.773Z,83.8302
2018-10-12T06:17:40.654Z,83.8302
2018-10-12T06:18:46.110Z,82.8235
2018-10-12T06:19:51.321Z,82.4034
2018-10-12T06:20:56.762Z,82.8235
2018-10-12T06:22:01.894Z,81.9832
2018-10-12T06:23:06.263Z,80.9765
2018-10-12T06:24:11.437Z,81.7322
2018-10-12T06:25:16.907Z,82.1523
2018-10-12T06:26:22.081Z,82.1523
2018-10-12T06:27:27.901Z,81.9832
2018-10-12T06:28:32.813Z,82.1523
2018-10-12T06:29:38.336Z,80.9765
2018-10-12T06:30:44.017Z,80.4745
2018-10-12T06:31:48.949Z,81.2275
2018-10-12T06:32:54.884Z,80.9765
2018-10-12T06:34:00.511Z,81.4812
2018-10-12T06:35:05.388Z,80.9765
2018-10-12T06:36:10.305Z,80.7255
2018-10-12T06:37:15.417Z,80.7255
2018-10-12T06:38:20.601Z,81.2275
2018-10-12T06:39:40.462Z,79.9698
2018-10-12T06:40:46.002Z,79.7188
2018-10-12T06:41:52.724Z,80.4745
2018-10-12T06:42:58.937Z,79.9698
2018-10-12T06:44:04.091Z,79.2141
2018-10-12T06:45:08.961Z,79.9698
2018-10-12T06:46:13.646Z,78.7966
2018-10-12T06:47:18.177Z,78.2919
2018-10-12T06:48:23.331Z,78.7966
2018-10-12T06:49:28.524Z,78.0409
2018-10-12T06:50:33.701Z,78.2919
2018-10-12T06:51:39.391Z,78.2919
2018-10-12T06:52:45.121Z,78.0409
2018-10-12T06:53:50.754Z,77.0342
2018-10-12T06:54:56.686Z,76.7831
2018-10-12T06:56:01.614Z,76.7831
2018-10-12T06:57:06.240Z,76.5321
2018-10-12T06:58:11.715Z,76.7831
2018-10-12T06:59:16.881Z,76.363
2018-10-12T07:00:22.426Z,76.5321
2018-10-12T07:01:42.852Z,76.5321
2018-10-12T07:02:48.015Z,75.61
2018-10-12T07:03:53.960Z,75.861
2018-10-12T07:04:59.427Z,75.3589
2018-10-12T07:06:04.794Z,74.8543
2018-10-12T07:07:09.777Z,75.1053
2018-10-12T07:08:15.216Z,75.1053
2018-10-12T07:09:20.393Z,74.8543
2018-10-12T07:10:25.654Z,75.3589
2018-10-12T07:11:31.130Z,75.3589
2018-10-12T07:12:37.029Z,74.8543
2018-10-12T07:13:42.350Z,75.1053
2018-10-12T07:14:47.627Z,74.8543
2018-10-12T07:15:53.415Z,75.3589
2018-10-12T07:16:58.604Z,73.5965
2018-10-12T07:18:04.041Z,74.3522
2018-10-12T07:19:09.473Z,73.8475
2018-10-12T07:20:14.707Z,73.5965
2018-10-12T07:21:19.634Z,74.1012
2018-10-12T07:22:25.330Z,73.0945
2018-10-12T07:23:30.774Z,72.9254
2018-10-12T07:24:36.562Z,72.6743
2018-10-12T07:25:42.072Z,72.6743
2018-10-12T07:26:47.057Z,73.0945
2018-10-12T07:27:52.193Z,71.9213
2018-10-12T07:28:57.293Z,71.9213
2018-10-12T07:30:02.651Z,72.1723
2018-10-12T07:31:07.735Z,72.1723
2018-10-12T07:32:12.898Z,71.4166
2018-10-12T07:33:18.062Z,70.9146
2018-10-12T07:34:23.743Z,70.4971
2018-10-12T07:35:28.435Z,70.7481
2018-10-12T07:36:34.168Z,71.4166
2018-10-12T07:37:39.798Z,71.1656
2018-10-12T07:38:45.237Z,70.7481
2018-10-12T07:39:50.095Z,70.7481
2018-10-12T07:40:55.536Z,71.1656
2018-10-12T07:42:01.043Z,70.4971
2018-10-12T07:43:06.478Z,70.9146
2018-10-12T07:44:11.653Z,69.9924
2018-10-12T07:45:16.975Z,70.7481
2018-10-12T07:46:22.413Z,69.9924
2018-10-12T07:47:27.682Z,70.2434
2018-10-12T07:48:33.291Z,69.5749
2018-10-12T07:49:38.776Z,69.5749
2018-10-12T07:50:44.275Z,69.3239
2018-10-12T07:51:49.739Z,69.0702
2018-10-12T07:52:55.277Z,67.8151
2018-10-12T07:54:00.186Z,67.8151
2018-10-12T07:55:06.309Z,67.8151
2018-10-12T07:56:11.298Z,68.5682
2018-10-12T07:57:16.726Z,68.8192
2018-10-12T07:58:22.169Z,69.3239
2018-10-12T07:59:26.849Z,68.8192
2018-10-12T08:00:32.413Z,69.3239
2018-10-12T08:01:37.450Z,69.0702
2018-10-12T08:02:42.893Z,69.0702
2018-10-12T08:03:48.582Z,69.0702
2018-10-12T08:04:54.048Z,69.3239
2018-10-12T08:05:59.066Z,69.0702
2018-10-12T08:07:03.475Z,69.4903
2018-10-12T08:08:07.776Z,69.9924
2018-10-12T08:09:12.948Z,69.0702
2018-10-12T08:10:18.113Z,69.3239
2018-10-12T08:11:23.370Z,69.3239
2018-10-12T08:12:28.665Z,69.0702
2018-10-12T08:13:33.028Z,69.0702
2018-10-12T08:14:38.626Z,68.8192
2018-10-12T08:15:44.500Z,69.4903
2018-10-12T08:16:49.694Z,69.3239
2018-10-12T08:17:55.238Z,69.0702
2018-10-12T08:19:01.059Z,69.0702
2018-10-12T08:20:05.662Z,69.4903
2018-10-12T08:21:11.408Z,69.7414
2018-10-12T08:22:17.331Z,69.7414
2018-10-12T08:23:22.472Z,69.3239
2018-10-12T08:24:28.000Z,68.5682
2018-10-12T08:25:32.915Z,69.4903
2018-10-12T08:26:38.076Z,68.3172
2018-10-12T08:27:44.136Z,68.3172
2018-10-12T08:28:49.036Z,68.3172
2018-10-12T08:29:54.185Z,68.3172
2018-10-12T08:30:59.670Z,68.3172
2018-10-12T08:32:05.126Z,68.3172
2018-10-12T08:33:10.194Z,68.5682
2018-10-12T08:34:15.667Z,69.0702
2018-10-12T08:35:20.637Z,68.3172
2018-10-12T08:36:26.877Z,67.8151
2018-10-12T08:37:31.939Z,68.5682
2018-10-12T08:38:37.018Z,68.3172
2018-10-12T08:39:42.703Z,69.2393
2018-10-12T08:40:47.615Z,68.0661
2018-10-12T08:41:53.076Z,68.0661
2018-10-12T08:42:59.271Z,67.3104
2018-10-12T08:44:04.830Z,67.3104
2018-10-12T08:45:10.022Z,68.3172
2018-10-12T08:46:15.226Z,67.5641
2018-10-12T08:47:20.747Z,68.0661
2018-10-12T08:48:41.294Z,68.0661
2018-10-12T08:49:46.808Z,67.8151
2018-10-12T08:50:51.975Z,68.3172
2018-10-12T08:51:57.729Z,68.8192
2018-10-12T08:53:03.201Z,67.5641
2018-10-12T08:54:08.085Z,67.5641
2018-10-12T08:55:13.028Z,67.0594
2018-10-12T08:56:18.755Z,68.5682
2018-10-12T08:57:23.908Z,67.8151
2018-10-12T08:58:29.653Z,67.5641
2018-10-12T08:59:34.830Z,67.0594
2018-10-12T09:00:40.243Z,67.3104
2018-10-12T09:01:45.461Z,67.3104
2018-10-12T09:02:50.892Z,67.0594
2018-10-12T09:03:56.339Z,67.0594
2018-10-12T09:05:01.816Z,67.5641
2018-10-12T09:06:07.242Z,66.5574
2018-10-12T09:07:13.117Z,66.3909
2018-10-12T09:08:18.565Z,66.8084
2018-10-12T09:09:24.020Z,66.8084
2018-10-12T09:10:44.418Z,65.8862
2018-10-12T09:11:49.983Z,66.6419
2018-10-12T09:12:55.481Z,66.6419
2018-10-12T09:14:00.721Z,66.1399
2018-10-12T09:15:05.971Z,66.1399
2018-10-12T09:16:10.904Z,66.6419
2018-10-12T09:17:15.833Z,66.3909
2018-10-12T09:18:20.717Z,65.3842
2018-10-12T09:19:26.281Z,66.3909
2018-10-12T09:20:32.855Z,65.8862
2018-10-12T09:21:38.516Z,65.1332
2018-10-12T09:22:43.989Z,64.6311
2018-10-12T09:23:49.083Z,64.8821
2018-10-12T09:24:54.774Z,64.6311
2018-10-12T09:25:59.372Z,64.8821
2018-10-12T09:27:04.347Z,63.96
2018-10-12T09:28:09.521Z,64.462
2018-10-12T09:29:14.733Z,63.709
2018-10-12T09:30:20.117Z,63.709
2018-10-12T09:31:25.957Z,64.8821
2018-10-12T09:32:31.346Z,64.7157
2018-10-12T09:33:36.775Z,64.211
2018-10-12T09:34:42.250Z,64.7157
2018-10-12T09:35:47.693Z,64.7157
2018-10-12T09:36:53.612Z,64.462
2018-10-12T09:37:58.737Z,63.96
2018-10-12T09:39:03.626Z,63.96
2018-10-12T09:40:09.087Z,63.96
2018-10-12T09:41:14.536Z,64.211
2018-10-12T09:42:18.841Z,63.96
2018-10-12T09:43:24.872Z,63.4579
2018-10-12T09:44:30.500Z,63.709
2018-10-12T09:45:35.998Z,64.211
2018-10-12T09:46:41.164Z,64.462
2018-10-12T09:47:46.657Z,63.96
2018-10-12T09:48:52.130Z,64.462
2018-10-12T09:49:57.579Z,63.4579
2018-10-12T09:51:02.459Z,64.211
2018-10-12T09:52:07.046Z,64.462
2018-10-12T09:53:12.014Z,63.96
2018-10-12T09:54:17.449Z,64.462
2018-10-12T09:55:22.797Z,64.462
2018-10-12T09:56:27.975Z,64.9667
2018-10-12T09:57:33.390Z,65.9708
2018-10-12T09:58:38.843Z,64.211
2018-10-12T09:59:44.063Z,64.7157
2018-10-12T10:00:49.762Z,64.211
2018-10-12T10:01:55.655Z,63.96
2018-10-12T10:03:01.708Z,65.2177
2018-10-12T10:04:07.658Z,64.7157
2018-10-12T10:05:13.306Z,64.211
2018-10-12T10:06:18.541Z,64.7157
2018-10-12T10:07:24.258Z,65.4687
2018-10-12T10:08:30.440Z,65.2177
2018-10-12T10:09:36.436Z,65.9708
2018-10-12T10:10:41.307Z,65.7198
2018-10-12T10:11:46.528Z,65.4687
2018-10-12T10:12:51.652Z,65.2177
2018-10-12T10:13:57.559Z,65.7198
2018-10-12T10:15:02.816Z,64.462
2018-10-12T10:16:08.114Z,64.9667
2018-10-12T10:17:13.309Z,65.2177
2018-10-12T10:18:18.461Z,64.7157
2018-10-12T10:19:24.024Z,64.9667
2018-10-12T10:20:29.936Z,65.4687
2018-10-12T10:21:35.767Z,65.2177
2018-10-12T10:22:40.922Z,65.4687
2018-10-12T10:23:45.521Z,65.7198
2018-10-12T10:24:51.043Z,66.2218
2018-10-12T10:25:55.896Z,64.9667
2018-10-12T10:27:01.127Z,65.4687
2018-10-12T10:28:06.913Z,65.4687
2018-10-12T10:29:12.406Z,65.7198
2018-10-12T10:30:17.751Z,65.2177
2018-10-12T10:31:23.458Z,65.2177
2018-10-12T10:32:28.622Z,65.4687
2018-10-12T10:33:34.416Z,65.4687
2018-10-12T10:34:39.613Z,66.4728
2018-10-12T10:35:45.082Z,65.7198
2018-10-12T10:36:50.981Z,66.2218
2018-10-12T10:37:56.015Z,65.9708
2018-10-12T10:39:01.408Z,66.4728
2018-10-12T10:40:06.762Z,66.9775
2018-10-12T10:41:12.253Z,65.9708
2018-10-12T10:42:17.053Z,66.2218
2018-10-12T10:43:22.238Z,66.4728
2018-10-12T10:44:27.143Z,66.7238
2018-10-12T10:45:32.275Z,65.9708
2018-10-12T10:46:37.743Z,65.2177
2018-10-12T10:47:43.205Z,65.7198
2018-10-12T10:48:48.687Z,67.395
2018-10-12T10:49:54.176Z,66.9775
2018-10-12T10:50:59.622Z,66.4728
2018-10-12T10:52:05.071Z,66.9775
2018-10-12T10:53:09.944Z,66.9775
2018-10-12T10:54:14.865Z,66.9775
2018-10-12T10:55:20.272Z,66.9775
2018-10-12T10:56:25.628Z,66.9775
2018-10-12T10:57:31.225Z,66.7238
2018-10-12T10:58:36.401Z,67.2285
2018-10-12T10:59:41.549Z,66.9775
2018-10-12T11:00:48.295Z,67.897
2018-10-12T11:01:53.773Z,66.7238
2018-10-12T11:02:58.651Z,67.2285
2018-10-12T11:04:04.281Z,67.646
2018-10-12T11:05:09.724Z,68.4017
2018-10-12T11:06:15.033Z,67.395
2018-10-12T11:07:20.810Z,68.1507
2018-10-12T11:08:25.408Z,67.897
2018-10-12T11:09:30.816Z,66.7238
2018-10-12T11:10:36.047Z,67.897
2018-10-12T11:11:41.491Z,68.1507
2018-10-12T11:12:47.207Z,67.646
2018-10-12T11:13:52.700Z,68.1507
2018-10-12T11:14:57.587Z,67.395
2018-10-12T11:16:02.813Z,68.6527
2018-10-12T11:17:07.533Z,68.1507
2018-10-12T11:18:13.035Z,68.6527
2018-10-12T11:19:18.690Z,68.9038
2018-10-12T11:20:23.731Z,68.6527
2018-10-12T11:21:29.151Z,68.6527
2018-10-12T11:22:33.807Z,68.9038
2018-10-12T11:23:38.669Z,69.9105
2018-10-12T11:24:43.613Z,69.1548
2018-10-12T11:25:48.921Z,69.9105
2018-10-12T11:26:54.634Z,69.1548
2018-10-12T11:28:00.964Z,69.4058
2018-10-12T11:29:06.205Z,68.9038
2018-10-12T11:30:10.815Z,69.4058
2018-10-12T11:31:16.806Z,69.4058
2018-10-12T11:32:22.329Z,68.6527
2018-10-12T11:33:27.974Z,69.4058
2018-10-12T11:34:32.854Z,68.1507
2018-10-12T11:35:37.213Z,69.4058
2018-10-12T11:36:42.615Z,69.1548
2018-10-12T11:37:47.769Z,69.9105
2018-10-12T11:38:53.263Z,69.4058
2018-10-12T11:39:59.127Z,69.9105
2018-10-12T11:41:03.478Z,69.9105
2018-10-12T11:42:08.056Z,69.6568
2018-10-12T11:43:13.204Z,70.077
2018-10-12T11:44:18.685Z,70.328
2018-10-12T11:45:24.609Z,69.4058
2018-10-12T11:46:30.643Z,69.6568
2018-10-12T11:47:35.863Z,70.579
2018-10-12T11:48:41.376Z,70.077
2018-10-12T11:49:46.827Z,70.328
2018-10-12T11:50:52.405Z,70.077
2018-10-12T11:51:58.254Z,70.579
2018-10-12T11:53:03.707Z,70.83
2018-10-12T11:54:08.853Z,70.077
2018-10-12T11:55:14.718Z,70.328
2018-10-12T11:56:20.243Z,70.328
2018-10-12T11:57:40.600Z,70.077
2018-10-12T11:58:46.035Z,69.4058
2018-10-12T11:59:51.475Z,70.83
2018-10-12T12:00:57.567Z,70.328
2018-10-12T12:02:03.177Z,69.9105
2018-10-12T12:03:08.738Z,69.1548
2018-10-12T12:04:14.543Z,70.077
2018-10-12T12:05:19.446Z,69.1548
2018-10-12T12:06:24.394Z,69.8259
2018-10-12T12:07:30.171Z,69.6568
2018-10-12T12:08:35.615Z,69.4058
2018-10-12T12:09:41.034Z,69.6568
2018-10-12T12:10:45.919Z,68.6527
2018-10-12T12:11:51.427Z,69.4058
2018-10-12T12:12:56.947Z,69.6568
2018-10-12T12:14:02.417Z,68.6527
2018-10-12T12:15:08.104Z,68.9038
2018-10-12T12:16:13.253Z,69.4058
2018-10-12T12:17:18.404Z,69.6568
2018-10-12T12:18:23.275Z,69.4058
2018-10-12T12:19:29.809Z,69.1548
2018-10-12T12:20:35.512Z,69.1548
2018-10-12T12:21:41.007Z,69.4058
2018-10-12T12:22:46.526Z,69.1548
2018-10-12T12:23:51.698Z,69.4058
2018-10-12T12:24:56.952Z,69.4058
2018-10-12T12:26:02.185Z,69.4058
2018-10-12T12:27:07.647Z,69.4058
2018-10-12T12:28:13.411Z,70.328
2018-10-12T12:29:18.640Z,69.8259
2018-10-12T12:30:24.011Z,69.8259
2018-10-12T12:31:29.920Z,69.8259
2018-10-12T12:32:34.881Z,70.077
2018-10-12T12:33:40.805Z,69.5749
2018-10-12T12:34:46.624Z,70.579
2018-10-12T12:35:54.430Z,70.077
2018-10-12T12:37:01.633Z,70.83
2018-10-12T12:38:07.079Z,70.077
2018-10-12T12:39:12.527Z,70.328
2018-10-12T12:40:17.927Z,69.5749
2018-10-12T12:41:23.453Z,70.328
2018-10-12T12:42:29.201Z,70.077
2018-10-12T12:43:34.448Z,70.579
2018-10-12T12:44:39.135Z,70.328
2018-10-12T12:45:44.823Z,70.83
2018-10-12T12:46:49.699Z,70.328
2018-10-12T12:47:56.323Z,70.83
2018-10-12T12:49:04.515Z,70.328
2018-10-12T12:50:10.632Z,70.9991
2018-10-12T12:51:15.797Z,70.328
2018-10-12T12:52:21.264Z,70.9991
2018-10-12T12:53:26.703Z,70.9991
2018-10-12T12:54:32.600Z,70.83
2018-10-12T12:55:37.187Z,70.328
2018-10-12T12:56:42.647Z,70.077
2018-10-12T12:57:48.375Z,70.579
2018-10-12T12:58:53.239Z,70.83
2018-10-12T12:59:58.753Z,70.83
2018-10-12T13:01:04.472Z,71.1656
2018-10-12T13:02:09.103Z,70.328
2018-10-12T13:03:14.255Z,70.9991
2018-10-12T13:04:19.664Z,70.579
2018-10-12T13:05:24.182Z,70.579
2018-10-12T13:06:30.820Z,70.9991
2018-10-12T13:07:36.132Z,71.4166
2018-10-12T13:08:41.653Z,70.077
2018-10-12T13:09:47.076Z,70.579
2018-10-12T13:10:52.513Z,70.83
2018-10-12T13:11:57.947Z,70.83
2018-10-12T13:13:02.509Z,70.077
2018-10-12T13:14:07.939Z,70.328
2018-10-12T13:15:12.297Z,70.328